sensor_id;sensor_type;location;lat;lon;timestamp;P1;durP1;ratioP1;P2;durP2;ratioP2
20369;SDS011;10344;47.592;9.600;2024-02-04T00:00:54;4.47;;;3.83;;
20369;SDS011;10344;47.592;9.600;2024-02-04T00:03:22;4.15;;;3.50;;
20369;SDS011;10344;47.592;9.600;2024-02-04T00:05:48;3.83;;;3.30;;
20369;SDS011;10344;47.592;9.600;2024-02-04T00:08:16;4.15;;;3.50;;
20369;SDS011;10344;47.592;9.600;2024-02-04T00:10:42;4.07;;;3.67;;
20369;SDS011;10344;47.592;9.600;2024-02-04T00:13:07;3.83;;;3.30;;
20369;SDS011;10344;47.592;9.600;2024-02-04T00:15:33;3.95;;;3.42;;
20369;SDS011;10344;47.592;9.600;2024-02-04T00:17:59;4.00;;;3.50;;
20369;SDS011;10344;47.592;9.600;2024-02-04T00:20:24;4.22;;;3.42;;
20369;SDS011;10344;47.592;9.600;2024-02-04T00:22:52;3.90;;;3.15;;
20369;SDS011;10344;47.592;9.600;2024-02-04T00:25:18;4.20;;;3.43;;
20369;SDS011;10344;47.592;9.600;2024-02-04T00:27:46;3.25;;;2.95;;
20369;SDS011;10344;47.592;9.600;2024-02-04T00:30:11;3.77;;;3.10;;
20369;SDS011;10344;47.592;9.600;2024-02-04T00:32:37;3.33;;;3.00;;
20369;SDS011;10344;47.592;9.600;2024-02-04T00:35:02;3.17;;;2.87;;
20369;SDS011;10344;47.592;9.600;2024-02-04T00:37:28;4.50;;;3.20;;
20369;SDS011;10344;47.592;9.600;2024-02-04T00:39:56;4.17;;;3.20;;
20369;SDS011;10344;47.592;9.600;2024-02-04T00:42:22;3.33;;;2.92;;
20369;SDS011;10344;47.592;9.600;2024-02-04T00:44:49;3.10;;;2.80;;
20369;SDS011;10344;47.592;9.600;2024-02-04T00:47:15;3.37;;;3.07;;
20369;SDS011;10344;47.592;9.600;2024-02-04T00:49:41;3.65;;;2.97;;
20369;SDS011;10344;47.592;9.600;2024-02-04T00:52:09;3.88;;;3.40;;
20369;SDS011;10344;47.592;9.600;2024-02-04T00:54:36;3.70;;;3.40;;
20369;SDS011;10344;47.592;9.600;2024-02-04T00:57:02;4.10;;;3.10;;
20369;SDS011;10344;47.592;9.600;2024-02-04T00:59:28;3.67;;;3.08;;
20369;SDS011;10344;47.592;9.600;2024-02-04T01:01:53;3.45;;;3.15;;
20369;SDS011;10344;47.592;9.600;2024-02-04T01:04:20;3.95;;;3.35;;
20369;SDS011;10344;47.592;9.600;2024-02-04T01:06:48;3.58;;;3.28;;
20369;SDS011;10344;47.592;9.600;2024-02-04T01:09:13;3.10;;;2.80;;
20369;SDS011;10344;47.592;9.600;2024-02-04T01:11:39;3.97;;;3.57;;
20369;SDS011;10344;47.592;9.600;2024-02-04T01:14:07;4.03;;;3.50;;
20369;SDS011;10344;47.592;9.600;2024-02-04T01:16:32;3.67;;;3.20;;
20369;SDS011;10344;47.592;9.600;2024-02-04T01:18:58;3.53;;;3.20;;
20369;SDS011;10344;47.592;9.600;2024-02-04T01:21:23;3.90;;;3.47;;
20369;SDS011;10344;47.592;9.600;2024-02-04T01:23:50;4.07;;;3.10;;
20369;SDS011;10344;47.592;9.600;2024-02-04T01:26:16;3.50;;;3.10;;
20369;SDS011;10344;47.592;9.600;2024-02-04T01:28:42;3.13;;;2.83;;
20369;SDS011;10344;47.592;9.600;2024-02-04T01:31:07;4.00;;;3.45;;
20369;SDS011;10344;47.592;9.600;2024-02-04T01:33:33;3.87;;;3.20;;
20369;SDS011;10344;47.592;9.600;2024-02-04T01:35:58;3.60;;;3.00;;
20369;SDS011;10344;47.592;9.600;2024-02-04T01:38:26;3.10;;;2.80;;
20369;SDS011;10344;47.592;9.600;2024-02-04T01:40:52;3.60;;;3.10;;
20369;SDS011;10344;47.592;9.600;2024-02-04T01:43:18;4.03;;;3.03;;
20369;SDS011;10344;47.592;9.600;2024-02-04T01:45:47;3.90;;;2.92;;
20369;SDS011;10344;47.592;9.600;2024-02-04T01:48:16;3.50;;;3.20;;
20369;SDS011;10344;47.592;9.600;2024-02-04T01:50:44;3.80;;;3.40;;
20369;SDS011;10344;47.592;9.600;2024-02-04T01:53:11;3.67;;;3.25;;
20369;SDS011;10344;47.592;9.600;2024-02-04T01:55:38;4.10;;;3.30;;
20369;SDS011;10344;47.592;9.600;2024-02-04T01:58:04;3.40;;;3.10;;
20369;SDS011;10344;47.592;9.600;2024-02-04T02:00:31;4.30;;;3.67;;
20369;SDS011;10344;47.592;9.600;2024-02-04T02:02:59;4.32;;;3.78;;
20369;SDS011;10344;47.592;9.600;2024-02-04T02:05:26;4.82;;;4.07;;
20369;SDS011;10344;47.592;9.600;2024-02-04T02:07:52;3.90;;;3.50;;
20369;SDS011;10344;47.592;9.600;2024-02-04T02:10:18;4.00;;;3.60;;
20369;SDS011;10344;47.592;9.600;2024-02-04T02:12:47;4.60;;;4.10;;
20369;SDS011;10344;47.592;9.600;2024-02-04T02:15:14;4.60;;;3.88;;
20369;SDS011;10344;47.592;9.600;2024-02-04T02:18:31;4.57;;;3.72;;
20369;SDS011;10344;47.592;9.600;2024-02-04T02:23:14;5.05;;;3.65;;
20369;SDS011;10344;47.592;9.600;2024-02-04T02:25:46;4.50;;;3.85;;
20369;SDS011;10344;47.592;9.600;2024-02-04T02:28:16;4.63;;;4.00;;
20369;SDS011;10344;47.592;9.600;2024-02-04T02:30:42;4.27;;;3.80;;
20369;SDS011;10344;47.592;9.600;2024-02-04T02:33:07;4.37;;;3.50;;
20369;SDS011;10344;47.592;9.600;2024-02-04T02:35:34;4.40;;;3.75;;
20369;SDS011;10344;47.592;9.600;2024-02-04T02:41:03;4.15;;;3.60;;
20369;SDS011;10344;47.592;9.600;2024-02-04T02:43:32;3.92;;;3.53;;
20369;SDS011;10344;47.592;9.600;2024-02-04T02:45:59;3.90;;;3.60;;
20369;SDS011;10344;47.592;9.600;2024-02-04T02:48:26;4.57;;;3.83;;
20369;SDS011;10344;47.592;9.600;2024-02-04T02:50:53;4.00;;;3.60;;
20369;SDS011;10344;47.592;9.600;2024-02-04T02:53:19;5.13;;;3.70;;
20369;SDS011;10344;47.592;9.600;2024-02-04T02:55:45;4.18;;;3.78;;
20369;SDS011;10344;47.592;9.600;2024-02-04T02:58:14;4.18;;;3.50;;
20369;SDS011;10344;47.592;9.600;2024-02-04T03:00:39;4.60;;;3.90;;
20369;SDS011;10344;47.592;9.600;2024-02-04T03:03:05;4.50;;;4.03;;
20369;SDS011;10344;47.592;9.600;2024-02-04T03:05:31;3.30;;;3.00;;
20369;SDS011;10344;47.592;9.600;2024-02-04T03:07:57;4.72;;;3.60;;
20369;SDS011;10344;47.592;9.600;2024-02-04T03:10:23;4.55;;;3.70;;
20369;SDS011;10344;47.592;9.600;2024-02-04T03:12:49;4.47;;;3.70;;
20369;SDS011;10344;47.592;9.600;2024-02-04T03:15:14;4.63;;;3.80;;
20369;SDS011;10344;47.592;9.600;2024-02-04T03:17:40;4.72;;;3.70;;
20369;SDS011;10344;47.592;9.600;2024-02-04T03:20:08;4.88;;;3.92;;
20369;SDS011;10344;47.592;9.600;2024-02-04T03:22:35;5.28;;;4.40;;
20369;SDS011;10344;47.592;9.600;2024-02-04T03:25:00;4.50;;;4.00;;
20369;SDS011;10344;47.592;9.600;2024-02-04T03:27:28;5.07;;;4.03;;
20369;SDS011;10344;47.592;9.600;2024-02-04T03:29:54;4.77;;;3.90;;
20369;SDS011;10344;47.592;9.600;2024-02-04T03:32:19;4.25;;;3.60;;
20369;SDS011;10344;47.592;9.600;2024-02-04T03:34:45;4.10;;;3.57;;
20369;SDS011;10344;47.592;9.600;2024-02-04T03:37:11;4.17;;;3.60;;
20369;SDS011;10344;47.592;9.600;2024-02-04T03:39:36;3.67;;;3.28;;
20369;SDS011;10344;47.592;9.600;2024-02-04T03:42:02;3.93;;;3.30;;
20369;SDS011;10344;47.592;9.600;2024-02-04T03:44:27;4.82;;;3.45;;
20369;SDS011;10344;47.592;9.600;2024-02-04T03:46:56;3.63;;;3.30;;
20369;SDS011;10344;47.592;9.600;2024-02-04T03:49:21;3.80;;;3.40;;
20369;SDS011;10344;47.592;9.600;2024-02-04T03:51:47;3.75;;;3.30;;
20369;SDS011;10344;47.592;9.600;2024-02-04T03:54:13;4.40;;;3.75;;
20369;SDS011;10344;47.592;9.600;2024-02-04T03:56:38;4.60;;;3.50;;
20369;SDS011;10344;47.592;9.600;2024-02-04T03:59:04;4.03;;;3.50;;
20369;SDS011;10344;47.592;9.600;2024-02-04T04:01:31;5.82;;;4.00;;
20369;SDS011;10344;47.592;9.600;2024-02-04T04:03:57;4.50;;;4.00;;
20369;SDS011;10344;47.592;9.600;2024-02-04T04:06:22;4.55;;;3.72;;
20369;SDS011;10344;47.592;9.600;2024-02-04T04:08:51;4.72;;;3.67;;
20369;SDS011;10344;47.592;9.600;2024-02-04T04:11:16;3.85;;;3.42;;
20369;SDS011;10344;47.592;9.600;2024-02-04T04:13:44;4.63;;;3.95;;
20369;SDS011;10344;47.592;9.600;2024-02-04T04:16:10;4.30;;;3.90;;
20369;SDS011;10344;47.592;9.600;2024-02-04T04:18:35;5.10;;;4.10;;
20369;SDS011;10344;47.592;9.600;2024-02-04T04:21:03;4.40;;;3.65;;
20369;SDS011;10344;47.592;9.600;2024-02-04T04:23:31;4.25;;;3.78;;
20369;SDS011;10344;47.592;9.600;2024-02-04T04:25:57;4.50;;;4.00;;
20369;SDS011;10344;47.592;9.600;2024-02-04T04:28:23;4.20;;;3.75;;
20369;SDS011;10344;47.592;9.600;2024-02-04T04:30:51;4.10;;;3.67;;
20369;SDS011;10344;47.592;9.600;2024-02-04T04:33:16;4.72;;;3.90;;
20369;SDS011;10344;47.592;9.600;2024-02-04T04:35:43;5.00;;;4.03;;
20369;SDS011;10344;47.592;9.600;2024-02-04T04:38:08;4.37;;;3.97;;
20369;SDS011;10344;47.592;9.600;2024-02-04T04:40:34;4.68;;;3.75;;
20369;SDS011;10344;47.592;9.600;2024-02-04T04:43:00;4.17;;;3.77;;
20369;SDS011;10344;47.592;9.600;2024-02-04T04:45:25;4.20;;;3.80;;
20369;SDS011;10344;47.592;9.600;2024-02-04T04:47:51;4.80;;;4.10;;
20369;SDS011;10344;47.592;9.600;2024-02-04T04:50:16;4.70;;;4.03;;
20369;SDS011;10344;47.592;9.600;2024-02-04T04:52:42;4.13;;;3.73;;
20369;SDS011;10344;47.592;9.600;2024-02-04T04:55:07;4.10;;;3.70;;
20369;SDS011;10344;47.592;9.600;2024-02-04T04:57:33;4.30;;;3.90;;
20369;SDS011;10344;47.592;9.600;2024-02-04T04:59:59;4.60;;;3.80;;
20369;SDS011;10344;47.592;9.600;2024-02-04T05:02:31;3.63;;;3.20;;
20369;SDS011;10344;47.592;9.600;2024-02-04T05:05:02;4.07;;;3.63;;
20369;SDS011;10344;47.592;9.600;2024-02-04T05:07:27;3.83;;;3.40;;
20369;SDS011;10344;47.592;9.600;2024-02-04T05:09:53;3.97;;;3.47;;
20369;SDS011;10344;47.592;9.600;2024-02-04T05:12:18;3.93;;;3.40;;
20369;SDS011;10344;47.592;9.600;2024-02-04T05:14:44;3.90;;;3.50;;
20369;SDS011;10344;47.592;9.600;2024-02-04T05:17:12;3.95;;;3.50;;
20369;SDS011;10344;47.592;9.600;2024-02-04T05:19:40;4.18;;;3.30;;
20369;SDS011;10344;47.592;9.600;2024-02-04T05:22:06;4.25;;;3.85;;
20369;SDS011;10344;47.592;9.600;2024-02-04T05:24:32;4.07;;;3.53;;
20369;SDS011;10344;47.592;9.600;2024-02-04T05:26:57;4.40;;;3.50;;
20369;SDS011;10344;47.592;9.600;2024-02-04T05:29:23;4.20;;;3.50;;
20369;SDS011;10344;47.592;9.600;2024-02-04T05:31:48;4.50;;;4.10;;
20369;SDS011;10344;47.592;9.600;2024-02-04T05:34:14;4.32;;;3.85;;
20369;SDS011;10344;47.592;9.600;2024-02-04T05:36:40;4.32;;;3.70;;
20369;SDS011;10344;47.592;9.600;2024-02-04T05:39:13;4.93;;;4.07;;
20369;SDS011;10344;47.592;9.600;2024-02-04T05:41:40;4.00;;;3.60;;
20369;SDS011;10344;47.592;9.600;2024-02-04T05:44:08;4.68;;;4.00;;
20369;SDS011;10344;47.592;9.600;2024-02-04T05:46:36;4.70;;;3.97;;
20369;SDS011;10344;47.592;9.600;2024-02-04T05:49:02;4.30;;;3.75;;
20369;SDS011;10344;47.592;9.600;2024-02-04T05:51:31;4.20;;;3.75;;
20369;SDS011;10344;47.592;9.600;2024-02-04T05:54:00;4.13;;;3.67;;
20369;SDS011;10344;47.592;9.600;2024-02-04T05:56:25;4.30;;;3.90;;
20369;SDS011;10344;47.592;9.600;2024-02-04T05:58:51;5.03;;;3.90;;
20369;SDS011;10344;47.592;9.600;2024-02-04T06:01:17;5.05;;;3.78;;
20369;SDS011;10344;47.592;9.600;2024-02-04T06:03:42;4.03;;;3.63;;
20369;SDS011;10344;47.592;9.600;2024-02-04T06:06:08;4.40;;;4.00;;
20369;SDS011;10344;47.592;9.600;2024-02-04T06:08:39;4.50;;;3.70;;
20369;SDS011;10344;47.592;9.600;2024-02-04T06:11:05;4.80;;;4.40;;
20369;SDS011;10344;47.592;9.600;2024-02-04T06:13:30;5.25;;;4.38;;
20369;SDS011;10344;47.592;9.600;2024-02-04T06:15:56;4.30;;;3.90;;
20369;SDS011;10344;47.592;9.600;2024-02-04T06:18:21;4.43;;;3.70;;
20369;SDS011;10344;47.592;9.600;2024-02-04T06:20:47;4.55;;;3.90;;
20369;SDS011;10344;47.592;9.600;2024-02-04T06:23:12;4.27;;;3.80;;
20369;SDS011;10344;47.592;9.600;2024-02-04T06:25:40;3.70;;;3.33;;
20369;SDS011;10344;47.592;9.600;2024-02-04T06:28:08;4.75;;;4.25;;
20369;SDS011;10344;47.592;9.600;2024-02-04T06:30:36;4.70;;;3.40;;
20369;SDS011;10344;47.592;9.600;2024-02-04T06:33:04;3.97;;;3.25;;
20369;SDS011;10344;47.592;9.600;2024-02-04T06:35:30;4.10;;;3.70;;
20369;SDS011;10344;47.592;9.600;2024-02-04T06:38:01;3.90;;;3.55;;
20369;SDS011;10344;47.592;9.600;2024-02-04T06:40:28;4.43;;;3.75;;
20369;SDS011;10344;47.592;9.600;2024-02-04T06:42:54;5.50;;;4.13;;
20369;SDS011;10344;47.592;9.600;2024-02-04T06:45:22;4.57;;;4.03;;
20369;SDS011;10344;47.592;9.600;2024-02-04T06:47:50;5.53;;;4.43;;
20369;SDS011;10344;47.592;9.600;2024-02-04T06:50:15;4.60;;;4.17;;
20369;SDS011;10344;47.592;9.600;2024-02-04T06:52:42;5.55;;;4.60;;
20369;SDS011;10344;47.592;9.600;2024-02-04T06:55:08;6.50;;;5.10;;
20369;SDS011;10344;47.592;9.600;2024-02-04T06:57:37;5.40;;;4.88;;
20369;SDS011;10344;47.592;9.600;2024-02-04T07:00:05;6.27;;;4.70;;
20369;SDS011;10344;47.592;9.600;2024-02-04T07:02:34;8.13;;;6.53;;
20369;SDS011;10344;47.592;9.600;2024-02-04T07:04:59;8.60;;;7.10;;
20369;SDS011;10344;47.592;9.600;2024-02-04T07:07:26;8.70;;;7.53;;
20369;SDS011;10344;47.592;9.600;2024-02-04T07:09:53;9.45;;;7.55;;
20369;SDS011;10344;47.592;9.600;2024-02-04T07:12:19;9.82;;;8.60;;
20369;SDS011;10344;47.592;9.600;2024-02-04T07:14:47;10.35;;;8.23;;
20369;SDS011;10344;47.592;9.600;2024-02-04T07:17:12;10.27;;;8.10;;
20369;SDS011;10344;47.592;9.600;2024-02-04T07:19:38;11.70;;;9.23;;
20369;SDS011;10344;47.592;9.600;2024-02-04T07:22:06;9.35;;;7.53;;
20369;SDS011;10344;47.592;9.600;2024-02-04T07:24:32;9.95;;;8.70;;
20369;SDS011;10344;47.592;9.600;2024-02-04T07:26:57;9.93;;;8.00;;
20369;SDS011;10344;47.592;9.600;2024-02-04T07:29:23;9.55;;;7.60;;
20369;SDS011;10344;47.592;9.600;2024-02-04T07:31:49;11.23;;;8.77;;
20369;SDS011;10344;47.592;9.600;2024-02-04T07:34:14;8.73;;;7.40;;
20369;SDS011;10344;47.592;9.600;2024-02-04T07:36:40;8.70;;;7.50;;
20369;SDS011;10344;47.592;9.600;2024-02-04T07:39:06;9.87;;;7.87;;
20369;SDS011;10344;47.592;9.600;2024-02-04T07:41:31;8.70;;;7.40;;
20369;SDS011;10344;47.592;9.600;2024-02-04T07:43:59;8.40;;;6.77;;
20369;SDS011;10344;47.592;9.600;2024-02-04T07:46:25;8.57;;;6.97;;
20369;SDS011;10344;47.592;9.600;2024-02-04T07:48:50;7.25;;;5.95;;
20369;SDS011;10344;47.592;9.600;2024-02-04T07:51:16;8.67;;;7.10;;
20369;SDS011;10344;47.592;9.600;2024-02-04T07:53:42;7.15;;;6.32;;
20369;SDS011;10344;47.592;9.600;2024-02-04T07:56:08;6.97;;;5.93;;
20369;SDS011;10344;47.592;9.600;2024-02-04T07:58:35;6.97;;;5.53;;
20369;SDS011;10344;47.592;9.600;2024-02-04T08:01:01;6.53;;;5.30;;
20369;SDS011;10344;47.592;9.600;2024-02-04T08:03:27;5.97;;;5.23;;
20369;SDS011;10344;47.592;9.600;2024-02-04T08:05:54;6.03;;;5.33;;
20369;SDS011;10344;47.592;9.600;2024-02-04T08:08:20;7.20;;;6.50;;
20369;SDS011;10344;47.592;9.600;2024-02-04T08:10:46;6.10;;;5.50;;
20369;SDS011;10344;47.592;9.600;2024-02-04T08:13:12;7.25;;;5.70;;
20369;SDS011;10344;47.592;9.600;2024-02-04T08:15:37;6.97;;;5.50;;
20369;SDS011;10344;47.592;9.600;2024-02-04T08:18:03;6.40;;;5.17;;
20369;SDS011;10344;47.592;9.600;2024-02-04T08:20:29;6.72;;;5.60;;
20369;SDS011;10344;47.592;9.600;2024-02-04T08:22:55;6.43;;;5.60;;
20369;SDS011;10344;47.592;9.600;2024-02-04T08:25:20;6.60;;;5.95;;
20369;SDS011;10344;47.592;9.600;2024-02-04T08:27:46;5.88;;;5.22;;
20369;SDS011;10344;47.592;9.600;2024-02-04T08:30:14;6.60;;;5.30;;
20369;SDS011;10344;47.592;9.600;2024-02-04T08:32:41;6.20;;;5.53;;
20369;SDS011;10344;47.592;9.600;2024-02-04T08:35:06;7.57;;;5.20;;
20369;SDS011;10344;47.592;9.600;2024-02-04T08:37:32;7.93;;;5.47;;
20369;SDS011;10344;47.592;9.600;2024-02-04T08:40:00;6.22;;;4.90;;
20369;SDS011;10344;47.592;9.600;2024-02-04T08:42:26;6.80;;;5.40;;
20369;SDS011;10344;47.592;9.600;2024-02-04T08:44:52;7.30;;;6.10;;
20369;SDS011;10344;47.592;9.600;2024-02-04T08:47:17;7.50;;;6.20;;
20369;SDS011;10344;47.592;9.600;2024-02-04T08:49:45;6.90;;;6.00;;
20369;SDS011;10344;47.592;9.600;2024-02-04T08:52:11;8.43;;;6.97;;
20369;SDS011;10344;47.592;9.600;2024-02-04T08:54:36;8.48;;;6.40;;
20369;SDS011;10344;47.592;9.600;2024-02-04T08:57:02;8.37;;;6.00;;
20369;SDS011;10344;47.592;9.600;2024-02-04T08:59:28;6.93;;;5.33;;
20369;SDS011;10344;47.592;9.600;2024-02-04T09:01:53;7.50;;;5.97;;
20369;SDS011;10344;47.592;9.600;2024-02-04T09:04:21;8.02;;;6.65;;
20369;SDS011;10344;47.592;9.600;2024-02-04T09:06:47;7.07;;;5.90;;
20369;SDS011;10344;47.592;9.600;2024-02-04T09:09:12;8.13;;;6.93;;
20369;SDS011;10344;47.592;9.600;2024-02-04T09:11:38;8.50;;;7.23;;
20369;SDS011;10344;47.592;9.600;2024-02-04T09:14:04;8.27;;;7.00;;
20369;SDS011;10344;47.592;9.600;2024-02-04T09:16:29;8.65;;;6.72;;
20369;SDS011;10344;47.592;9.600;2024-02-04T09:18:55;7.80;;;6.00;;
20369;SDS011;10344;47.592;9.600;2024-02-04T09:21:20;7.53;;;6.47;;
20369;SDS011;10344;47.592;9.600;2024-02-04T09:23:47;9.05;;;6.38;;
20369;SDS011;10344;47.592;9.600;2024-02-04T09:26:13;8.07;;;6.57;;
20369;SDS011;10344;47.592;9.600;2024-02-04T09:28:39;7.57;;;6.57;;
20369;SDS011;10344;47.592;9.600;2024-02-04T09:31:07;7.45;;;6.15;;
20369;SDS011;10344;47.592;9.600;2024-02-04T09:33:33;6.65;;;5.95;;
20369;SDS011;10344;47.592;9.600;2024-02-04T09:35:58;7.10;;;5.93;;
20369;SDS011;10344;47.592;9.600;2024-02-04T09:38:24;8.00;;;6.43;;
20369;SDS011;10344;47.592;9.600;2024-02-04T09:40:52;9.40;;;6.45;;
20369;SDS011;10344;47.592;9.600;2024-02-04T09:43:18;7.40;;;6.30;;
20369;SDS011;10344;47.592;9.600;2024-02-04T09:45:44;7.60;;;6.20;;
20369;SDS011;10344;47.592;9.600;2024-02-04T09:48:09;7.83;;;6.50;;
20369;SDS011;10344;47.592;9.600;2024-02-04T09:50:39;7.38;;;6.35;;
20369;SDS011;10344;47.592;9.600;2024-02-04T09:53:07;7.80;;;6.75;;
20369;SDS011;10344;47.592;9.600;2024-02-04T09:55:36;7.45;;;6.22;;
20369;SDS011;10344;47.592;9.600;2024-02-04T09:58:06;9.40;;;6.20;;
20369;SDS011;10344;47.592;9.600;2024-02-04T10:00:32;8.40;;;6.43;;
20369;SDS011;10344;47.592;9.600;2024-02-04T10:02:58;7.10;;;5.68;;
20369;SDS011;10344;47.592;9.600;2024-02-04T10:05:28;7.32;;;5.80;;
20369;SDS011;10344;47.592;9.600;2024-02-04T10:07:53;6.97;;;5.45;;
20369;SDS011;10344;47.592;9.600;2024-02-04T10:10:19;6.20;;;5.57;;
20369;SDS011;10344;47.592;9.600;2024-02-04T10:12:47;6.10;;;5.22;;
20369;SDS011;10344;47.592;9.600;2024-02-04T10:15:15;6.13;;;4.88;;
20369;SDS011;10344;47.592;9.600;2024-02-04T10:17:47;7.18;;;5.72;;
20369;SDS011;10344;47.592;9.600;2024-02-04T10:20:15;6.60;;;5.85;;
20369;SDS011;10344;47.592;9.600;2024-02-04T10:22:41;7.67;;;5.93;;
20369;SDS011;10344;47.592;9.600;2024-02-04T10:25:07;7.10;;;6.40;;
20369;SDS011;10344;47.592;9.600;2024-02-04T10:27:35;7.35;;;5.72;;
20369;SDS011;10344;47.592;9.600;2024-02-04T10:30:00;8.35;;;5.90;;
20369;SDS011;10344;47.592;9.600;2024-02-04T10:32:26;7.40;;;5.80;;
20369;SDS011;10344;47.592;9.600;2024-02-04T10:34:52;7.75;;;5.70;;
20369;SDS011;10344;47.592;9.600;2024-02-04T10:37:20;7.40;;;5.75;;
20369;SDS011;10344;47.592;9.600;2024-02-04T10:39:45;6.88;;;5.47;;
20369;SDS011;10344;47.592;9.600;2024-02-04T10:42:11;8.68;;;5.75;;
20369;SDS011;10344;47.592;9.600;2024-02-04T10:44:40;7.38;;;5.60;;
20369;SDS011;10344;47.592;9.600;2024-02-04T10:47:10;7.70;;;5.85;;
20369;SDS011;10344;47.592;9.600;2024-02-04T10:49:43;7.07;;;5.63;;
20369;SDS011;10344;47.592;9.600;2024-02-04T10:52:18;5.90;;;5.30;;
20369;SDS011;10344;47.592;9.600;2024-02-04T10:54:44;6.03;;;5.20;;
20369;SDS011;10344;47.592;9.600;2024-02-04T10:57:13;6.47;;;5.40;;
20369;SDS011;10344;47.592;9.600;2024-02-04T10:59:44;6.50;;;5.20;;
20369;SDS011;10344;47.592;9.600;2024-02-04T11:02:12;6.63;;;5.47;;
20369;SDS011;10344;47.592;9.600;2024-02-04T11:04:48;6.47;;;5.25;;
20369;SDS011;10344;47.592;9.600;2024-02-04T11:07:14;7.22;;;5.50;;
20369;SDS011;10344;47.592;9.600;2024-02-04T11:09:42;6.38;;;5.53;;
20369;SDS011;10344;47.592;9.600;2024-02-04T11:12:13;6.32;;;5.47;;
20369;SDS011;10344;47.592;9.600;2024-02-04T11:14:45;7.55;;;5.60;;
20369;SDS011;10344;47.592;9.600;2024-02-04T11:27:54;6.68;;;5.07;;
20369;SDS011;10344;47.592;9.600;2024-02-04T11:30:20;7.45;;;5.80;;
20369;SDS011;10344;47.592;9.600;2024-02-04T11:32:47;7.20;;;5.35;;
20369;SDS011;10344;47.592;9.600;2024-02-04T11:35:15;7.85;;;5.55;;
20369;SDS011;10344;47.592;9.600;2024-02-04T11:37:43;6.05;;;5.15;;
20369;SDS011;10344;47.592;9.600;2024-02-04T11:40:14;6.75;;;5.30;;
20369;SDS011;10344;47.592;9.600;2024-02-04T11:42:41;6.30;;;5.15;;
20369;SDS011;10344;47.592;9.600;2024-02-04T11:45:11;7.82;;;5.20;;
20369;SDS011;10344;47.592;9.600;2024-02-04T11:47:38;6.18;;;5.22;;
20369;SDS011;10344;47.592;9.600;2024-02-04T11:50:04;6.78;;;5.32;;
20369;SDS011;10344;47.592;9.600;2024-02-04T11:52:31;7.45;;;5.32;;
20369;SDS011;10344;47.592;9.600;2024-02-04T11:54:56;7.27;;;5.40;;
20369;SDS011;10344;47.592;9.600;2024-02-04T11:57:22;6.40;;;4.95;;
20369;SDS011;10344;47.592;9.600;2024-02-04T11:59:48;6.50;;;5.07;;
20369;SDS011;10344;47.592;9.600;2024-02-04T12:02:17;6.82;;;5.13;;
20369;SDS011;10344;47.592;9.600;2024-02-04T12:04:46;6.63;;;5.00;;
20369;SDS011;10344;47.592;9.600;2024-02-04T12:07:15;7.20;;;5.13;;
20369;SDS011;10344;47.592;9.600;2024-02-04T12:09:42;6.40;;;4.68;;
20369;SDS011;10344;47.592;9.600;2024-02-04T12:12:09;6.65;;;4.90;;
20369;SDS011;10344;47.592;9.600;2024-02-04T12:14:35;6.30;;;5.07;;
20369;SDS011;10344;47.592;9.600;2024-02-04T12:17:08;5.93;;;5.10;;
20369;SDS011;10344;47.592;9.600;2024-02-04T12:19:35;7.60;;;4.85;;
20369;SDS011;10344;47.592;9.600;2024-02-04T12:22:01;6.47;;;4.72;;
20369;SDS011;10344;47.592;9.600;2024-02-04T12:24:33;5.93;;;4.80;;
20369;SDS011;10344;47.592;9.600;2024-02-04T12:26:58;7.82;;;5.47;;
20369;SDS011;10344;47.592;9.600;2024-02-04T12:29:28;7.43;;;5.30;;
20369;SDS011;10344;47.592;9.600;2024-02-04T12:31:59;6.45;;;5.10;;
20369;SDS011;10344;47.592;9.600;2024-02-04T12:34:26;6.37;;;4.70;;
20369;SDS011;10344;47.592;9.600;2024-02-04T12:36:58;5.82;;;5.00;;
20369;SDS011;10344;47.592;9.600;2024-02-04T12:39:25;6.87;;;5.10;;
20369;SDS011;10344;47.592;9.600;2024-02-04T12:41:53;7.38;;;5.43;;
20369;SDS011;10344;47.592;9.600;2024-02-04T12:44:21;7.38;;;5.15;;
20369;SDS011;10344;47.592;9.600;2024-02-04T12:46:50;6.40;;;4.85;;
20369;SDS011;10344;47.592;9.600;2024-02-04T12:49:19;6.07;;;4.82;;
20369;SDS011;10344;47.592;9.600;2024-02-04T12:51:48;7.55;;;5.03;;
20369;SDS011;10344;47.592;9.600;2024-02-04T12:54:19;6.97;;;5.00;;
20369;SDS011;10344;47.592;9.600;2024-02-04T12:59:10;7.88;;;5.07;;
20369;SDS011;10344;47.592;9.600;2024-02-04T13:01:37;7.78;;;5.50;;
20369;SDS011;10344;47.592;9.600;2024-02-04T13:04:03;10.30;;;5.65;;
20369;SDS011;10344;47.592;9.600;2024-02-04T13:06:30;7.20;;;5.22;;
20369;SDS011;10344;47.592;9.600;2024-02-04T13:08:56;6.70;;;4.90;;
20369;SDS011;10344;47.592;9.600;2024-02-04T13:11:23;7.45;;;5.40;;
20369;SDS011;10344;47.592;9.600;2024-02-04T13:13:50;9.40;;;5.68;;
20369;SDS011;10344;47.592;9.600;2024-02-04T13:16:16;7.28;;;5.28;;
20369;SDS011;10344;47.592;9.600;2024-02-04T13:18:44;7.43;;;5.47;;
20369;SDS011;10344;47.592;9.600;2024-02-04T13:21:19;6.95;;;5.28;;
20369;SDS011;10344;47.592;9.600;2024-02-04T13:23:47;8.30;;;5.30;;
20369;SDS011;10344;47.592;9.600;2024-02-04T13:26:15;8.13;;;5.53;;
20369;SDS011;10344;47.592;9.600;2024-02-04T13:28:41;6.95;;;5.13;;
20369;SDS011;10344;47.592;9.600;2024-02-04T13:31:07;5.78;;;4.82;;
20369;SDS011;10344;47.592;9.600;2024-02-04T13:33:33;5.85;;;4.28;;
20369;SDS011;10344;47.592;9.600;2024-02-04T13:35:59;7.17;;;4.50;;
20369;SDS011;10344;47.592;9.600;2024-02-04T13:38:24;6.93;;;4.53;;
20369;SDS011;10344;47.592;9.600;2024-02-04T13:40:50;6.17;;;4.50;;
20369;SDS011;10344;47.592;9.600;2024-02-04T13:43:16;6.67;;;5.10;;
20369;SDS011;10344;47.592;9.600;2024-02-04T13:45:41;7.75;;;4.50;;
20369;SDS011;10344;47.592;9.600;2024-02-04T13:48:07;6.03;;;4.47;;
20369;SDS011;10344;47.592;9.600;2024-02-04T13:50:33;5.18;;;4.00;;
20369;SDS011;10344;47.592;9.600;2024-02-04T13:53:00;6.05;;;4.60;;
20369;SDS011;10344;47.592;9.600;2024-02-04T13:55:26;6.63;;;4.97;;
20369;SDS011;10344;47.592;9.600;2024-02-04T13:57:51;7.60;;;4.80;;
20369;SDS011;10344;47.592;9.600;2024-02-04T14:00:17;6.93;;;4.43;;
20369;SDS011;10344;47.592;9.600;2024-02-04T14:02:43;6.53;;;4.83;;
20369;SDS011;10344;47.592;9.600;2024-02-04T14:05:09;6.40;;;4.60;;
20369;SDS011;10344;47.592;9.600;2024-02-04T14:07:37;7.28;;;4.50;;
20369;SDS011;10344;47.592;9.600;2024-02-04T14:10:03;7.55;;;4.88;;
20369;SDS011;10344;47.592;9.600;2024-02-04T14:12:29;6.40;;;4.50;;
20369;SDS011;10344;47.592;9.600;2024-02-04T14:14:57;6.38;;;4.40;;
20369;SDS011;10344;47.592;9.600;2024-02-04T14:17:25;5.97;;;4.38;;
20369;SDS011;10344;47.592;9.600;2024-02-04T14:19:51;6.18;;;4.45;;
20369;SDS011;10344;47.592;9.600;2024-02-04T14:22:17;7.40;;;4.70;;
20369;SDS011;10344;47.592;9.600;2024-02-04T14:24:43;8.00;;;4.68;;
20369;SDS011;10344;47.592;9.600;2024-02-04T14:27:10;6.70;;;4.40;;
20369;SDS011;10344;47.592;9.600;2024-02-04T14:29:41;7.03;;;4.50;;
20369;SDS011;10344;47.592;9.600;2024-02-04T14:32:09;7.05;;;4.65;;
20369;SDS011;10344;47.592;9.600;2024-02-04T14:34:35;6.30;;;4.68;;
20369;SDS011;10344;47.592;9.600;2024-02-04T14:37:00;6.10;;;4.40;;
20369;SDS011;10344;47.592;9.600;2024-02-04T14:39:26;6.47;;;4.32;;
20369;SDS011;10344;47.592;9.600;2024-02-04T14:41:52;7.53;;;4.88;;
20369;SDS011;10344;47.592;9.600;2024-02-04T14:44:19;6.70;;;4.90;;
20369;SDS011;10344;47.592;9.600;2024-02-04T14:46:45;6.85;;;4.65;;
20369;SDS011;10344;47.592;9.600;2024-02-04T14:49:11;7.18;;;5.13;;
20369;SDS011;10344;47.592;9.600;2024-02-04T14:51:39;6.05;;;4.78;;
20369;SDS011;10344;47.592;9.600;2024-02-04T14:54:06;8.23;;;5.68;;
20369;SDS011;10344;47.592;9.600;2024-02-04T14:56:40;8.20;;;5.20;;
20369;SDS011;10344;47.592;9.600;2024-02-04T14:59:09;8.55;;;5.45;;
20369;SDS011;10344;47.592;9.600;2024-02-04T15:01:36;6.45;;;5.10;;
20369;SDS011;10344;47.592;9.600;2024-02-04T15:04:04;5.93;;;4.93;;